createdAt,value
2023-10-22T00:01:04.526Z,14.27
2023-10-22T00:02:37.990Z,14.17
2023-10-22T00:04:10.363Z,14.24
2023-10-22T00:05:43.845Z,14.20
2023-10-22T00:07:16.317Z,14.11
2023-10-22T00:08:49.816Z,14.12
2023-10-22T00:10:22.035Z,14.06
2023-10-22T00:11:55.393Z,14.11
2023-10-22T00:13:32.136Z,14.09
2023-10-22T00:15:05.421Z,13.94
2023-10-22T00:16:38.670Z,13.95
2023-10-22T00:18:12.028Z,14.00
2023-10-22T00:19:44.233Z,14.00
2023-10-22T00:21:17.683Z,13.97
2023-10-22T00:22:50.274Z,13.91
2023-10-22T00:24:24.579Z,14.01
2023-10-22T00:25:56.794Z,14.07
2023-10-22T00:27:30.402Z,14.07
2023-10-22T00:29:04.116Z,13.95
2023-10-22T00:30:37.857Z,14.07
2023-10-22T00:32:10.066Z,14.07
2023-10-22T00:33:43.601Z,14.09
2023-10-22T00:35:16.047Z,14.08
2023-10-22T00:36:49.521Z,14.10
2023-10-22T00:38:21.742Z,14.09
2023-10-22T00:39:55.236Z,14.17
2023-10-22T00:41:27.456Z,14.12
2023-10-22T00:43:06.178Z,14.04
2023-10-22T00:44:41.422Z,14.01
2023-10-22T00:46:18.525Z,14.01
2023-10-22T00:47:52.165Z,14.00
2023-10-22T00:49:24.951Z,13.88
2023-10-22T00:50:59.222Z,14.02
2023-10-22T00:52:31.672Z,14.01
2023-10-22T00:54:05.448Z,14.02
2023-10-22T00:55:40.807Z,14.01
2023-10-22T00:57:15.056Z,14.00
2023-10-22T00:58:47.474Z,14.05
2023-10-22T01:00:23.012Z,14.12
2023-10-22T01:01:55.454Z,14.17
2023-10-22T01:03:28.964Z,14.23
2023-10-22T01:05:01.826Z,14.24
2023-10-22T01:06:37.549Z,14.26
2023-10-22T01:08:10.837Z,14.19
2023-10-22T01:09:45.803Z,14.31
2023-10-22T01:11:18.218Z,14.38
2023-10-22T01:12:51.469Z,14.46
2023-10-22T01:14:23.912Z,14.50
2023-10-22T01:15:58.667Z,14.55
2023-10-22T01:17:32.429Z,14.57
2023-10-22T01:19:04.801Z,14.44
2023-10-22T01:20:38.098Z,14.65
2023-10-22T01:22:11.392Z,14.68
2023-10-22T01:23:45.337Z,14.69
2023-10-22T01:25:19.199Z,14.72
2023-10-22T01:26:51.537Z,14.67
2023-10-22T01:28:24.780Z,14.77
2023-10-22T01:29:58.833Z,14.74
2023-10-22T01:31:32.172Z,14.72
2023-10-22T01:33:04.591Z,14.77
2023-10-22T01:34:37.998Z,14.79
2023-10-22T01:36:10.531Z,14.81
2023-10-22T01:37:45.324Z,14.65
2023-10-22T01:39:19.563Z,14.74
2023-10-22T01:40:52.777Z,14.74
2023-10-22T01:42:25.135Z,14.69
2023-10-22T01:43:59.911Z,14.54
2023-10-22T01:45:32.230Z,14.62
2023-10-22T01:47:05.699Z,14.59
2023-10-22T01:48:39.782Z,14.55
2023-10-22T01:50:13.445Z,14.61
2023-10-22T01:51:45.729Z,14.56
2023-10-22T01:53:18.939Z,14.63
2023-10-22T01:54:52.789Z,14.66
2023-10-22T01:56:26.267Z,14.65
2023-10-22T01:57:59.744Z,14.68
2023-10-22T01:59:32.997Z,14.69
2023-10-22T02:01:05.797Z,14.71
2023-10-22T02:02:39.256Z,14.76
2023-10-22T02:04:12.638Z,14.78
2023-10-22T02:05:46.594Z,14.79
2023-10-22T02:07:20.248Z,14.80
2023-10-22T02:08:53.497Z,14.83
2023-10-22T02:10:27.236Z,14.88
2023-10-22T02:12:01.519Z,14.88
2023-10-22T02:13:34.186Z,14.89
2023-10-22T02:15:08.562Z,14.91
2023-10-22T02:16:41.224Z,14.91
2023-10-22T02:18:14.561Z,14.85
2023-10-22T02:19:47.191Z,14.69
2023-10-22T02:21:22.726Z,14.83
2023-10-22T02:22:56.033Z,14.80
2023-10-22T02:24:29.745Z,14.87
2023-10-22T02:26:05.906Z,14.81
2023-10-22T02:27:38.282Z,14.87
2023-10-22T02:29:11.529Z,14.91
2023-10-22T02:30:44.860Z,14.86
2023-10-22T02:32:17.294Z,14.88
2023-10-22T02:33:50.616Z,14.91
2023-10-22T02:35:22.968Z,14.94
2023-10-22T02:36:57.846Z,14.96
2023-10-22T02:38:31.655Z,14.99
2023-10-22T02:40:04.828Z,14.94
2023-10-22T02:41:39.636Z,15.06
2023-10-22T02:43:13.164Z,15.08
2023-10-22T02:44:45.631Z,15.08
2023-10-22T02:46:18.921Z,15.06
2023-10-22T02:47:51.423Z,15.03
2023-10-22T02:49:24.760Z,15.00
2023-10-22T02:50:57.207Z,15.10
2023-10-22T02:52:30.465Z,15.06
2023-10-22T02:54:02.689Z,15.05
2023-10-22T02:55:35.972Z,15.06
2023-10-22T02:57:10.861Z,15.10
2023-10-22T02:58:43.672Z,15.13
2023-10-22T03:00:29.715Z,15.18
2023-10-22T03:02:09.662Z,15.12
2023-10-22T03:03:42.161Z,15.19
2023-10-22T03:05:15.518Z,15.20
2023-10-22T03:06:47.780Z,15.25
2023-10-22T03:08:20.964Z,15.22
2023-10-22T03:09:53.521Z,15.24
2023-10-22T03:11:26.739Z,15.20
2023-10-22T03:13:01.629Z,15.23
2023-10-22T03:14:34.930Z,15.24
2023-10-22T03:16:12.699Z,15.28
2023-10-22T03:17:46.009Z,15.26
2023-10-22T03:19:18.933Z,15.22
2023-10-22T03:20:52.243Z,15.23
2023-10-22T03:22:26.967Z,15.19
2023-10-22T03:23:59.757Z,15.20
2023-10-22T03:25:33.734Z,15.23
2023-10-22T03:27:06.822Z,15.19
2023-10-22T03:28:41.844Z,15.19
2023-10-22T03:30:14.990Z,15.17
2023-10-22T03:31:48.432Z,15.18
2023-10-22T03:33:20.667Z,15.14
2023-10-22T03:34:54.203Z,15.15
2023-10-22T03:36:27.493Z,15.17
2023-10-22T03:38:00.450Z,15.20
2023-10-22T03:39:33.756Z,15.16
2023-10-22T03:41:07.476Z,15.19
2023-10-22T03:42:40.966Z,15.22
2023-10-22T03:44:15.684Z,15.23
2023-10-22T03:45:48.661Z,15.21
2023-10-22T03:47:22.842Z,15.20
2023-10-22T03:48:58.486Z,15.06
2023-10-22T03:50:30.705Z,14.98
2023-10-22T03:52:06.884Z,15.00
2023-10-22T03:53:39.509Z,15.03
2023-10-22T03:55:12.868Z,15.08
2023-10-22T03:56:45.214Z,15.12
2023-10-22T03:58:18.699Z,15.19
2023-10-22T03:59:53.133Z,15.19
2023-10-22T04:01:26.337Z,15.19
2023-10-22T04:02:58.654Z,15.21
2023-10-22T04:04:31.959Z,15.24
2023-10-22T04:06:04.672Z,15.27
2023-10-22T04:07:37.987Z,15.23
2023-10-22T04:09:10.310Z,15.23
2023-10-22T04:10:47.308Z,15.20
2023-10-22T04:12:20.589Z,15.21
2023-10-22T04:13:52.820Z,15.23
2023-10-22T04:15:28.726Z,15.23
2023-10-22T04:17:01.943Z,15.22
2023-10-22T04:18:34.351Z,15.20
2023-10-22T04:20:09.086Z,15.22
2023-10-22T04:21:42.897Z,15.23
2023-10-22T04:23:15.314Z,15.27
2023-10-22T04:24:48.771Z,15.29
2023-10-22T04:26:21.040Z,15.30
2023-10-22T04:27:55.668Z,15.27
2023-10-22T04:29:27.867Z,15.28
2023-10-22T04:31:02.687Z,15.31
2023-10-22T04:32:35.533Z,15.29
2023-10-22T04:34:09.567Z,15.35
2023-10-22T04:35:41.779Z,15.35
2023-10-22T04:37:16.726Z,15.35
2023-10-22T04:38:50.620Z,15.33
2023-10-22T04:40:23.132Z,15.32
2023-10-22T04:41:56.320Z,15.32
2023-10-22T04:43:31.633Z,15.30
2023-10-22T04:45:05.315Z,15.34
2023-10-22T04:46:39.217Z,15.34
2023-10-22T04:48:12.625Z,15.33
2023-10-22T04:49:45.918Z,15.34
2023-10-22T04:51:19.396Z,15.37
2023-10-22T04:52:51.802Z,15.36
2023-10-22T04:54:25.577Z,15.35
2023-10-22T04:55:59.697Z,15.32
2023-10-22T04:57:32.889Z,15.32
2023-10-22T04:59:06.652Z,15.33
2023-10-22T05:00:40.710Z,15.37
2023-10-22T05:02:14.535Z,15.37
2023-10-22T05:03:47.882Z,15.36
2023-10-22T05:05:21.341Z,15.36
2023-10-22T05:06:56.313Z,15.39
2023-10-22T05:08:28.706Z,15.43
2023-10-22T05:10:02.074Z,15.43
2023-10-22T05:11:34.432Z,15.52
2023-10-22T05:13:10.697Z,15.52
2023-10-22T05:14:43.035Z,15.47
2023-10-22T05:16:16.462Z,15.49
2023-10-22T05:17:50.188Z,15.46
2023-10-22T05:19:23.511Z,15.47
2023-10-22T05:21:03.491Z,15.53
2023-10-22T05:22:35.868Z,15.53
2023-10-22T05:24:10.987Z,15.48
2023-10-22T05:25:43.355Z,15.58
2023-10-22T05:27:17.274Z,15.64
2023-10-22T05:28:49.473Z,15.72
2023-10-22T05:30:23.083Z,15.76
2023-10-22T05:31:55.331Z,15.81
2023-10-22T05:33:30.196Z,15.83
2023-10-22T05:35:05.052Z,15.85
2023-10-22T05:36:37.348Z,15.84
2023-10-22T05:38:10.598Z,15.85
2023-10-22T05:39:43.291Z,15.90
2023-10-22T05:41:22.873Z,16.02
2023-10-22T05:42:55.209Z,16.05
2023-10-22T05:44:28.457Z,16.10
2023-10-22T05:46:00.816Z,16.09
2023-10-22T05:47:34.182Z,16.13
2023-10-22T05:49:09.086Z,16.15
2023-10-22T05:50:42.362Z,16.13
2023-10-22T05:52:15.601Z,16.15
2023-10-22T05:53:47.852Z,16.20
2023-10-22T05:55:21.436Z,16.27
2023-10-22T05:56:54.826Z,16.35
2023-10-22T05:58:27.874Z,16.37
2023-10-22T06:00:01.201Z,16.41
2023-10-22T06:01:33.831Z,16.42
2023-10-22T06:03:07.052Z,16.45
2023-10-22T06:04:40.840Z,16.47
2023-10-22T06:06:14.135Z,16.50
2023-10-22T06:07:47.263Z,16.53
2023-10-22T06:09:20.560Z,16.53
2023-10-22T06:10:52.957Z,16.48
2023-10-22T06:12:26.429Z,16.46
2023-10-22T06:13:58.579Z,16.40
2023-10-22T06:15:31.942Z,16.44
2023-10-22T06:17:05.550Z,16.38
2023-10-22T06:18:39.399Z,16.41
2023-10-22T06:20:14.133Z,16.32
2023-10-22T06:21:48.006Z,16.29
2023-10-22T06:23:21.751Z,16.29
2023-10-22T06:24:54.973Z,16.28
2023-10-22T06:26:28.227Z,16.30
2023-10-22T06:28:00.969Z,16.34
2023-10-22T06:29:34.254Z,16.35
2023-10-22T06:31:07.368Z,16.31
2023-10-22T06:32:40.628Z,16.39
2023-10-22T06:34:12.917Z,16.42
2023-10-22T06:35:48.182Z,16.49
2023-10-22T06:37:20.714Z,16.54
2023-10-22T06:38:53.918Z,16.59
2023-10-22T06:40:26.277Z,16.64
2023-10-22T06:42:01.095Z,16.71
2023-10-22T06:43:33.496Z,16.75
2023-10-22T06:45:08.781Z,16.70
2023-10-22T06:46:41.068Z,16.74
2023-10-22T06:48:14.748Z,16.76
2023-10-22T06:49:47.240Z,16.83
2023-10-22T06:51:23.476Z,16.86
2023-10-22T06:52:55.806Z,16.91
2023-10-22T06:54:29.890Z,16.81
2023-10-22T06:56:03.810Z,16.90
2023-10-22T06:57:37.110Z,16.94
2023-10-22T06:59:09.858Z,16.99
2023-10-22T07:00:43.273Z,17.07
2023-10-22T07:02:17.581Z,17.03
2023-10-22T07:03:50.912Z,17.14
2023-10-22T07:05:23.998Z,17.25
2023-10-22T07:06:58.796Z,17.37
2023-10-22T07:08:32.372Z,17.65
2023-10-22T07:10:05.111Z,17.82
2023-10-22T07:11:39.987Z,18.01
2023-10-22T07:13:12.193Z,18.25
2023-10-22T07:15:03.960Z,18.58
2023-10-22T07:16:37.210Z,18.79
2023-10-22T07:18:09.480Z,18.92
2023-10-22T07:19:43.282Z,19.03
2023-10-22T07:21:15.766Z,19.14
2023-10-22T07:22:50.382Z,19.21
2023-10-22T07:24:23.285Z,19.24
2023-10-22T07:25:58.545Z,19.32
2023-10-22T07:27:30.867Z,19.36
2023-10-22T07:29:04.181Z,19.43
2023-10-22T07:30:36.479Z,19.57
2023-10-22T07:32:11.846Z,19.75
2023-10-22T07:33:44.434Z,19.79
2023-10-22T07:35:17.961Z,19.92
2023-10-22T07:36:50.213Z,19.95
2023-10-22T07:38:26.005Z,19.93
2023-10-22T07:39:59.229Z,19.82
2023-10-22T07:41:32.571Z,19.83
2023-10-22T07:43:05.640Z,19.77
2023-10-22T07:44:39.181Z,19.79
2023-10-22T07:46:12.361Z,19.82
2023-10-22T07:47:45.819Z,19.91
2023-10-22T07:49:18.124Z,20.06
2023-10-22T07:50:51.532Z,20.44
2023-10-22T07:52:24.047Z,20.71
2023-10-22T07:53:58.712Z,21.38
2023-10-22T07:55:31.051Z,21.75
2023-10-22T07:57:06.635Z,21.98
2023-10-22T07:58:40.288Z,22.34
2023-10-22T08:00:15.469Z,22.69
2023-10-22T08:01:47.842Z,23.04
2023-10-22T08:03:21.481Z,23.27
2023-10-22T08:04:54.016Z,23.50
2023-10-22T08:06:27.239Z,23.81
2023-10-22T08:07:59.545Z,24.13
2023-10-22T08:09:34.319Z,24.52
2023-10-22T08:11:07.248Z,24.87
2023-10-22T08:12:40.615Z,25.27
2023-10-22T08:14:12.993Z,25.66
2023-10-22T08:15:47.509Z,25.85
2023-10-22T08:17:19.903Z,26.13
2023-10-22T08:18:53.239Z,26.31
2023-10-22T08:20:25.577Z,26.62
2023-10-22T08:21:59.048Z,26.89
2023-10-22T08:23:32.186Z,27.05
2023-10-22T08:25:07.735Z,27.23
2023-10-22T08:26:40.194Z,27.46
2023-10-22T08:28:13.623Z,27.64
2023-10-22T08:29:48.457Z,27.66
2023-10-22T08:31:20.940Z,27.61
2023-10-22T08:32:54.300Z,27.83
2023-10-22T08:34:26.584Z,27.92
2023-10-22T08:36:06.276Z,28.18
2023-10-22T08:37:39.140Z,28.31
2023-10-22T08:39:13.095Z,27.95
2023-10-22T08:40:47.203Z,27.47
2023-10-22T08:42:25.432Z,27.63
2023-10-22T08:43:59.657Z,27.99
2023-10-22T08:45:33.456Z,28.22
2023-10-22T08:47:05.887Z,28.32
2023-10-22T08:48:39.921Z,28.43
2023-10-22T08:50:13.060Z,28.20
2023-10-22T08:51:46.330Z,28.03
2023-10-22T08:53:18.923Z,28.09
2023-10-22T08:54:53.556Z,27.77
2023-10-22T08:56:28.378Z,27.70
2023-10-22T08:58:01.610Z,27.89
2023-10-22T08:59:37.702Z,28.05
2023-10-22T09:01:10.208Z,28.16
2023-10-22T09:02:45.430Z,28.24
2023-10-22T09:04:19.712Z,28.38
2023-10-22T09:05:52.550Z,28.50
2023-10-22T09:07:54.028Z,28.59
2023-10-22T09:09:29.798Z,28.55
2023-10-22T09:11:14.133Z,28.55
2023-10-22T09:12:47.756Z,28.48
2023-10-22T09:14:23.583Z,28.40
2023-10-22T09:15:56.146Z,28.35
2023-10-22T09:17:30.754Z,28.29
2023-10-22T09:19:03.384Z,28.28
2023-10-22T09:20:37.021Z,28.30
2023-10-22T09:22:23.726Z,28.33
2023-10-22T09:24:05.187Z,28.35
2023-10-22T09:25:38.534Z,28.43
2023-10-22T09:27:10.923Z,28.54
2023-10-22T09:28:48.901Z,28.60
2023-10-22T09:30:31.631Z,28.71
2023-10-22T09:32:10.149Z,28.83
2023-10-22T09:33:43.957Z,28.98
2023-10-22T09:35:16.425Z,29.02
2023-10-22T09:36:53.847Z,29.25
2023-10-22T09:38:41.349Z,29.34
2023-10-22T09:40:21.180Z,29.43
2023-10-22T09:42:05.662Z,29.48
2023-10-22T09:43:48.379Z,29.51
2023-10-22T09:45:24.840Z,29.54
2023-10-22T09:47:01.585Z,29.57
2023-10-22T09:48:35.997Z,29.53
2023-10-22T09:50:13.796Z,29.57
2023-10-22T09:51:48.343Z,29.57
2023-10-22T09:53:28.229Z,29.55
2023-10-22T09:55:05.917Z,29.38
2023-10-22T09:56:45.521Z,29.20
2023-10-22T09:58:19.785Z,29.05
2023-10-22T09:59:55.330Z,28.93
2023-10-22T10:01:32.328Z,28.84
2023-10-22T10:03:05.548Z,28.70
2023-10-22T10:04:41.951Z,28.60
2023-10-22T10:06:15.990Z,28.55
2023-10-22T10:07:49.959Z,28.48
2023-10-22T10:09:23.210Z,28.44
2023-10-22T10:10:56.814Z,28.46
2023-10-22T10:12:32.545Z,28.48
2023-10-22T10:14:13.769Z,28.46
2023-10-22T10:15:59.957Z,28.53
2023-10-22T10:17:33.380Z,28.57
2023-10-22T10:19:09.295Z,28.60
2023-10-22T10:20:43.689Z,28.62
2023-10-22T10:22:41.205Z,28.59
2023-10-22T10:24:21.409Z,28.58
2023-10-22T10:25:55.599Z,28.58
2023-10-22T10:27:28.034Z,28.57
2023-10-22T10:29:07.550Z,28.55
2023-10-22T10:30:41.105Z,28.50
2023-10-22T10:32:23.826Z,28.41
2023-10-22T10:34:03.228Z,28.44
2023-10-22T10:35:45.405Z,28.46
2023-10-22T10:37:19.934Z,28.51
2023-10-22T10:38:52.229Z,28.51
2023-10-22T10:40:43.589Z,28.55
2023-10-22T10:42:49.417Z,28.58
2023-10-22T10:44:21.662Z,28.64
2023-10-22T10:46:26.755Z,28.80
2023-10-22T10:48:02.600Z,28.87
2023-10-22T10:49:58.840Z,28.96
2023-10-22T10:51:32.087Z,28.95
2023-10-22T10:53:04.825Z,28.95
2023-10-22T10:54:38.212Z,29.02
2023-10-22T10:56:10.695Z,29.02
2023-10-22T10:57:46.226Z,29.05
2023-10-22T10:59:29.212Z,29.04
2023-10-22T11:01:05.199Z,29.06
2023-10-22T11:02:42.984Z,29.12
2023-10-22T11:04:16.688Z,29.15
2023-10-22T11:05:50.533Z,29.20
2023-10-22T11:07:27.446Z,29.22
2023-10-22T11:09:01.095Z,29.24
2023-10-22T11:10:34.502Z,29.31
2023-10-22T11:12:09.467Z,29.38
2023-10-22T11:13:42.998Z,29.48
2023-10-22T11:15:17.665Z,29.50
2023-10-22T11:16:55.347Z,29.51
2023-10-22T11:18:28.992Z,29.53
2023-10-22T11:20:03.050Z,29.51
2023-10-22T11:21:38.295Z,29.43
2023-10-22T11:23:19.148Z,29.42
2023-10-22T11:24:52.592Z,29.43
2023-10-22T11:26:25.939Z,29.44
2023-10-22T11:27:59.902Z,29.45
2023-10-22T11:29:40.438Z,29.31
2023-10-22T11:31:25.417Z,29.36
2023-10-22T11:32:57.767Z,29.42
2023-10-22T11:34:31.090Z,29.46
2023-10-22T11:36:20.542Z,29.43
2023-10-22T11:37:55.300Z,29.40
2023-10-22T11:39:41.574Z,29.46
2023-10-22T11:41:17.365Z,29.51
2023-10-22T11:42:50.797Z,29.54
2023-10-22T11:44:32.033Z,29.44
2023-10-22T11:46:05.318Z,29.52
2023-10-22T11:47:37.629Z,29.57
2023-10-22T11:49:12.259Z,29.58
2023-10-22T11:50:49.358Z,29.55
2023-10-22T11:52:53.262Z,29.51
2023-10-22T11:54:45.911Z,29.53
2023-10-22T11:56:19.273Z,29.46
2023-10-22T11:57:51.617Z,29.49
2023-10-22T11:59:24.881Z,29.52
2023-10-22T12:00:57.388Z,29.47
2023-10-22T12:02:30.849Z,29.53
2023-10-22T12:04:04.758Z,29.56
2023-10-22T12:05:38.118Z,29.52
2023-10-22T12:07:10.570Z,29.56
2023-10-22T12:08:46.523Z,29.55
2023-10-22T12:10:19.374Z,29.66
2023-10-22T12:11:54.714Z,29.67
2023-10-22T12:13:27.133Z,29.65
2023-10-22T12:15:00.649Z,29.67
2023-10-22T12:16:34.179Z,29.62
2023-10-22T12:18:08.748Z,29.58
2023-10-22T12:19:41.441Z,29.62
2023-10-22T12:21:15.400Z,29.60
2023-10-22T12:22:47.778Z,29.50
2023-10-22T12:24:27.148Z,29.51
2023-10-22T12:26:01.073Z,29.52
2023-10-22T12:27:34.563Z,29.58
2023-10-22T12:29:06.951Z,29.62
2023-10-22T12:30:41.436Z,29.66
2023-10-22T12:32:14.146Z,29.69
2023-10-22T12:33:47.860Z,29.71
2023-10-22T12:35:22.908Z,29.72
2023-10-22T12:36:57.169Z,29.63
2023-10-22T12:38:30.672Z,29.58
2023-10-22T12:40:07.001Z,29.58
2023-10-22T12:41:40.259Z,29.56
2023-10-22T12:43:12.602Z,29.55
2023-10-22T12:44:46.457Z,29.58
2023-10-22T12:46:18.942Z,29.58
2023-10-22T12:47:52.296Z,29.61
2023-10-22T12:49:24.660Z,29.58
2023-10-22T12:50:58.228Z,29.58
2023-10-22T12:52:31.679Z,29.58
2023-10-22T12:54:05.767Z,29.56
2023-10-22T12:55:39.433Z,29.56
2023-10-22T12:57:13.347Z,29.59
2023-10-22T12:58:46.072Z,29.57
2023-10-22T13:00:19.729Z,29.58
2023-10-22T13:01:52.030Z,29.58
2023-10-22T13:03:25.698Z,29.57
2023-10-22T13:04:58.110Z,29.60
2023-10-22T13:06:31.705Z,29.59
2023-10-22T13:08:05.392Z,29.56
2023-10-22T13:09:38.689Z,29.56
2023-10-22T13:11:15.673Z,29.56
2023-10-22T13:13:02.468Z,29.55
2023-10-22T13:14:42.874Z,29.58
2023-10-22T13:16:15.358Z,29.53
2023-10-22T13:17:48.790Z,29.49
2023-10-22T13:19:22.053Z,29.47
2023-10-22T13:20:54.289Z,29.46
2023-10-22T13:22:27.916Z,29.43
2023-10-22T13:24:02.878Z,29.44
2023-10-22T13:25:35.978Z,29.38
2023-10-22T13:27:14.905Z,29.42
2023-10-22T13:28:49.280Z,29.39
2023-10-22T13:30:21.778Z,29.39
2023-10-22T13:31:55.282Z,29.41
2023-10-22T13:33:28.933Z,29.40
2023-10-22T13:35:01.673Z,29.44
2023-10-22T13:36:35.426Z,29.32
2023-10-22T13:38:07.701Z,29.42
2023-10-22T13:39:40.951Z,29.32
2023-10-22T13:41:14.267Z,29.32
2023-10-22T13:42:48.337Z,29.29
2023-10-22T13:44:21.918Z,29.29
2023-10-22T13:45:54.576Z,29.27
2023-10-22T13:47:28.299Z,29.26
2023-10-22T13:49:01.978Z,29.26
2023-10-22T13:50:35.248Z,29.24
2023-10-22T13:52:07.441Z,29.20
2023-10-22T13:53:40.770Z,29.17
2023-10-22T13:55:13.109Z,29.16
2023-10-22T13:56:46.442Z,29.17
2023-10-22T13:58:21.118Z,29.13
2023-10-22T13:59:53.977Z,29.12
2023-10-22T14:01:27.508Z,29.10
2023-10-22T14:02:59.798Z,29.10
2023-10-22T14:04:33.283Z,29.08
2023-10-22T14:06:07.196Z,29.08
2023-10-22T14:07:41.551Z,29.06
2023-10-22T14:09:14.113Z,29.03
2023-10-22T14:10:47.569Z,28.91
2023-10-22T14:12:20.011Z,28.95
2023-10-22T14:13:55.052Z,28.94
2023-10-22T14:15:29.617Z,28.90
2023-10-22T14:17:02.132Z,28.85
2023-10-22T14:18:35.728Z,28.80
2023-10-22T14:20:09.253Z,28.75
2023-10-22T14:21:43.355Z,28.70
2023-10-22T14:23:15.927Z,28.64
2023-10-22T14:24:53.415Z,28.59
2023-10-22T14:26:26.922Z,28.53
2023-10-22T14:27:59.218Z,28.48
2023-10-22T14:29:33.972Z,28.36
2023-10-22T14:31:08.219Z,28.34
2023-10-22T14:32:41.746Z,28.33
2023-10-22T14:34:25.180Z,28.26
2023-10-22T14:36:02.100Z,28.19
2023-10-22T14:37:35.832Z,28.09
2023-10-22T14:39:08.348Z,28.06
2023-10-22T14:40:42.051Z,27.97
2023-10-22T14:42:14.255Z,27.90
2023-10-22T14:43:47.653Z,27.81
2023-10-22T14:45:21.522Z,27.75
2023-10-22T14:46:54.795Z,27.69
2023-10-22T14:48:27.216Z,27.59
2023-10-22T14:50:00.763Z,27.54
2023-10-22T14:51:34.060Z,27.50
2023-10-22T14:53:07.373Z,27.44
2023-10-22T14:54:39.687Z,27.34
2023-10-22T14:56:13.262Z,27.23
2023-10-22T14:57:45.668Z,27.19
2023-10-22T14:59:19.118Z,27.13
2023-10-22T15:00:52.727Z,27.03
2023-10-22T15:02:26.193Z,26.82
2023-10-22T15:03:58.618Z,26.85
2023-10-22T15:05:32.288Z,26.75
2023-10-22T15:07:05.991Z,26.64
2023-10-22T15:08:38.369Z,26.53
2023-10-22T15:10:12.445Z,26.42
2023-10-22T15:11:44.781Z,26.30
2023-10-22T15:13:18.125Z,26.24
2023-10-22T15:14:50.481Z,26.14
2023-10-22T15:16:25.568Z,25.99
2023-10-22T15:17:57.991Z,25.93
2023-10-22T15:19:32.433Z,25.82
2023-10-22T15:21:05.156Z,25.70
2023-10-22T15:22:39.944Z,25.60
2023-10-22T15:24:12.373Z,25.43
2023-10-22T15:25:46.562Z,25.29
2023-10-22T15:27:18.958Z,25.25
2023-10-22T15:28:52.522Z,25.11
2023-10-22T15:30:27.166Z,24.97
2023-10-22T15:32:02.561Z,24.94
2023-10-22T15:33:34.908Z,24.79
2023-10-22T15:35:09.246Z,24.68
2023-10-22T15:36:42.612Z,24.56
2023-10-22T15:38:14.946Z,24.54
2023-10-22T15:39:48.345Z,24.45
2023-10-22T15:41:21.811Z,24.34
2023-10-22T15:42:54.450Z,24.28
2023-10-22T15:44:28.085Z,24.22
2023-10-22T15:46:00.467Z,24.11
2023-10-22T15:47:35.592Z,24.03
2023-10-22T15:49:07.908Z,23.97
2023-10-22T15:50:43.607Z,23.92
2023-10-22T15:52:15.945Z,23.84
2023-10-22T15:53:49.915Z,23.77
2023-10-22T15:55:22.359Z,23.68
2023-10-22T15:56:55.582Z,23.70
2023-10-22T15:58:27.924Z,23.67
2023-10-22T16:00:01.604Z,23.65
2023-10-22T16:01:34.933Z,23.60
2023-10-22T16:03:08.750Z,23.56
2023-10-22T16:04:42.442Z,23.49
2023-10-22T16:06:15.199Z,23.40
2023-10-22T16:07:48.586Z,23.37
2023-10-22T16:09:20.832Z,23.32
2023-10-22T16:10:54.433Z,23.22
2023-10-22T16:12:28.121Z,23.26
2023-10-22T16:14:01.642Z,23.30
2023-10-22T16:15:34.045Z,23.28
2023-10-22T16:17:09.930Z,23.22
2023-10-22T16:18:43.979Z,23.18
2023-10-22T16:20:17.575Z,23.11
2023-10-22T16:21:49.934Z,23.06
2023-10-22T16:23:23.571Z,23.06
2023-10-22T16:24:56.248Z,23.03
2023-10-22T16:26:29.603Z,22.94
2023-10-22T16:28:01.939Z,22.97
2023-10-22T16:29:35.319Z,22.88
2023-10-22T16:31:08.660Z,22.83
2023-10-22T16:32:40.990Z,22.70
2023-10-22T16:34:15.789Z,22.68
2023-10-22T16:35:49.320Z,22.62
2023-10-22T16:37:21.684Z,22.55
2023-10-22T16:38:54.979Z,22.51
2023-10-22T16:40:27.260Z,22.44
2023-10-22T16:42:00.680Z,22.40
2023-10-22T16:43:33.150Z,22.35
2023-10-22T16:45:07.024Z,22.38
2023-10-22T16:46:40.201Z,22.29
2023-10-22T16:48:13.795Z,22.27
2023-10-22T16:49:47.640Z,22.30
2023-10-22T16:51:21.203Z,22.28
2023-10-22T16:52:54.572Z,22.24
2023-10-22T16:54:28.741Z,22.19
2023-10-22T16:56:03.013Z,22.07
2023-10-22T16:57:36.531Z,22.09
2023-10-22T16:59:09.896Z,22.03
2023-10-22T17:00:42.261Z,21.82
2023-10-22T17:02:15.865Z,21.84
2023-10-22T17:03:48.407Z,21.76
2023-10-22T17:05:23.300Z,21.62
2023-10-22T17:06:55.659Z,21.56
2023-10-22T17:08:29.057Z,21.61
2023-10-22T17:10:02.364Z,21.57
2023-10-22T17:11:35.160Z,21.49
2023-10-22T17:13:08.487Z,21.50
2023-10-22T17:14:52.203Z,21.37
2023-10-22T17:16:26.567Z,21.05
2023-10-22T17:17:58.929Z,21.20
2023-10-22T17:19:32.496Z,21.09
2023-10-22T17:21:06.527Z,21.05
2023-10-22T17:22:41.017Z,20.95
2023-10-22T17:24:13.535Z,20.85
2023-10-22T17:25:49.989Z,20.77
2023-10-22T17:27:24.020Z,20.74
2023-10-22T17:28:58.321Z,20.69
2023-10-22T17:30:30.962Z,20.55
2023-10-22T17:32:04.691Z,20.67
2023-10-22T17:33:49.320Z,20.72
2023-10-22T17:35:30.437Z,20.72
2023-10-22T17:37:07.472Z,20.76
2023-10-22T17:38:39.916Z,20.70
2023-10-22T17:40:13.811Z,20.67
2023-10-22T17:41:47.414Z,20.65
2023-10-22T17:43:19.725Z,20.61
2023-10-22T17:44:53.082Z,20.49
2023-10-22T17:46:25.687Z,20.41
2023-10-22T17:48:01.235Z,20.36
2023-10-22T17:49:34.053Z,20.22
2023-10-22T17:51:07.433Z,20.19
2023-10-22T17:52:41.372Z,20.19
2023-10-22T17:54:14.623Z,20.10
2023-10-22T17:55:55.403Z,20.10
2023-10-22T17:57:36.450Z,20.07
2023-10-22T17:59:09.856Z,19.99
2023-10-22T18:00:42.298Z,19.98
2023-10-22T18:02:15.693Z,19.97
2023-10-22T18:03:50.123Z,19.85
2023-10-22T18:05:23.171Z,19.94
2023-10-22T18:06:56.805Z,19.90
2023-10-22T18:08:30.785Z,19.93
2023-10-22T18:10:07.666Z,19.71
2023-10-22T18:11:42.057Z,19.56
2023-10-22T18:13:14.800Z,19.64
2023-10-22T18:14:48.277Z,19.81
2023-10-22T18:16:22.788Z,19.78
2023-10-22T18:17:56.294Z,19.63
2023-10-22T18:19:39.802Z,19.75
2023-10-22T18:21:14.460Z,19.65
2023-10-22T18:22:47.966Z,19.66
2023-10-22T18:24:22.817Z,19.64
2023-10-22T18:26:02.614Z,19.69
2023-10-22T18:27:36.004Z,19.69
2023-10-22T18:29:08.670Z,19.67
2023-10-22T18:30:44.865Z,19.64
2023-10-22T18:32:17.501Z,19.60
2023-10-22T18:33:50.848Z,19.57
2023-10-22T18:35:24.426Z,19.52
2023-10-22T18:36:57.668Z,19.47
2023-10-22T18:38:30.996Z,19.44
2023-10-22T18:40:06.720Z,19.47
2023-10-22T18:41:39.204Z,19.19
2023-10-22T18:43:12.497Z,19.33
2023-10-22T18:44:44.791Z,19.27
2023-10-22T18:46:20.845Z,19.21
2023-10-22T18:47:53.471Z,19.13
2023-10-22T18:49:26.822Z,19.08
2023-10-22T18:51:00.356Z,18.89
2023-10-22T18:52:34.632Z,18.81
2023-10-22T18:54:07.143Z,18.79
2023-10-22T18:55:41.968Z,18.61
2023-10-22T18:57:14.234Z,18.57
2023-10-22T18:58:47.968Z,18.54
2023-10-22T19:00:21.911Z,18.64
2023-10-22T19:01:55.234Z,18.62
2023-10-22T19:03:27.904Z,18.62
2023-10-22T19:05:01.295Z,18.58
2023-10-22T19:06:34.773Z,18.51
2023-10-22T19:08:07.003Z,18.35
2023-10-22T19:09:40.445Z,18.20
2023-10-22T19:11:14.284Z,18.33
2023-10-22T19:12:48.691Z,18.30
2023-10-22T19:14:24.723Z,18.31
2023-10-22T19:16:02.336Z,18.29
2023-10-22T19:17:34.906Z,18.30
2023-10-22T19:19:08.758Z,18.31
2023-10-22T19:20:41.029Z,18.28
2023-10-22T19:22:14.406Z,18.25
2023-10-22T19:23:47.024Z,18.21
2023-10-22T19:25:20.618Z,18.17
2023-10-22T19:26:54.603Z,18.17
2023-10-22T19:28:28.356Z,18.17
2023-10-22T19:30:01.054Z,18.15
2023-10-22T19:31:34.571Z,18.09
2023-10-22T19:33:06.949Z,18.03
2023-10-22T19:34:40.760Z,17.88
2023-10-22T19:36:17.610Z,17.70
2023-10-22T19:37:52.486Z,17.60
2023-10-22T19:39:24.725Z,17.49
2023-10-22T19:40:58.400Z,17.38
2023-10-22T19:42:32.144Z,17.34
2023-10-22T19:44:05.802Z,17.33
2023-10-22T19:45:38.076Z,17.28
2023-10-22T19:47:11.607Z,17.24
2023-10-22T19:48:44.874Z,17.20
2023-10-22T19:50:18.747Z,17.15
2023-10-22T19:51:51.415Z,17.07
2023-10-22T19:53:24.920Z,17.12
2023-10-22T19:54:57.589Z,17.09
2023-10-22T19:56:31.254Z,17.05
2023-10-22T19:58:05.579Z,17.10
2023-10-22T19:59:38.994Z,17.00
2023-10-22T20:01:19.595Z,17.07
2023-10-22T20:02:54.595Z,17.05
2023-10-22T20:04:29.975Z,17.02
2023-10-22T20:06:04.552Z,16.87
2023-10-22T20:07:36.906Z,16.97
2023-10-22T20:09:10.368Z,16.94
2023-10-22T20:10:48.452Z,16.81
2023-10-22T20:12:22.525Z,16.84
2023-10-22T20:13:56.523Z,16.38
2023-10-22T20:15:30.545Z,16.81